createdAt,value
2022-08-09T00:02:29.098Z,102052.22
2022-08-09T00:07:30.892Z,102055.72
2022-08-09T00:12:46.679Z,102068.09
2022-08-09T00:18:05.994Z,102057.59
2022-08-09T00:23:54.841Z,102056.63
2022-08-09T00:28:35.774Z,102063.69
2022-08-09T00:33:48.965Z,102053.97
2022-08-09T00:38:53.997Z,102057.47
2022-08-09T00:44:16.376Z,102060.16
2022-08-09T00:49:17.933Z,102050.53
2022-08-09T00:54:31.629Z,102047.09
2022-08-09T00:59:47.135Z,102063.03
2022-08-09T01:05:14.243Z,102060.38
2022-08-09T01:10:54.046Z,102054.13
2022-08-09T01:15:58.033Z,102057.75
2022-08-09T01:21:51.171Z,102067.34
2022-08-09T01:27:15.218Z,102067.28
2022-08-09T01:32:29.681Z,102046.03
2022-08-09T01:38:05.821Z,102054.03
2022-08-09T01:43:05.149Z,102061.06
2022-08-09T01:48:11.269Z,102061.00
2022-08-09T01:53:22.633Z,102056.53
2022-08-09T01:58:28.769Z,102067.88
2022-08-09T02:03:34.973Z,102071.34
2022-08-09T02:08:57.863Z,102070.38
2022-08-09T02:14:07.607Z,102062.44
2022-08-09T02:19:11.242Z,102067.56
2022-08-09T02:24:25.757Z,102077.25
2022-08-09T02:29:42.438Z,102081.66
2022-08-09T02:34:55.953Z,102071.13
2022-08-09T02:40:09.382Z,102074.66
2022-08-09T02:45:30.205Z,102062.25
2022-08-09T02:50:55.744Z,102077.06
2022-08-09T02:56:01.160Z,102060.25
2022-08-09T03:01:11.124Z,102074.28
2022-08-09T03:06:15.688Z,102078.59
2022-08-09T03:12:05.340Z,102080.31
2022-08-09T03:16:48.117Z,102078.50
2022-08-09T03:21:51.769Z,102079.41
2022-08-09T03:26:54.640Z,102089.16
2022-08-09T03:32:00.037Z,102079.47
2022-08-09T03:37:10.730Z,102089.34
2022-08-09T03:42:26.287Z,102074.25
2022-08-09T03:47:30.756Z,102083.00
2022-08-09T03:52:43.685Z,102101.50
2022-08-09T03:57:57.537Z,102090.00
2022-08-09T04:03:11.827Z,102106.91
2022-08-09T04:08:29.004Z,102106.03
2022-08-09T04:13:45.123Z,102098.91
2022-08-09T04:18:53.291Z,102114.75
2022-08-09T04:23:57.716Z,102113.00
2022-08-09T04:29:02.448Z,102121.78
2022-08-09T04:34:08.813Z,102118.28
2022-08-09T04:39:12.604Z,102119.22
2022-08-09T04:44:15.189Z,102132.50
2022-08-09T04:49:22.312Z,102125.34
2022-08-09T04:54:41.075Z,102131.53
2022-08-09T04:59:42.831Z,102146.63
2022-08-09T05:04:55.285Z,102145.63
2022-08-09T05:09:57.749Z,102143.91
2022-08-09T05:15:11.678Z,102152.00
2022-08-09T05:20:13.849Z,102137.72
2022-08-09T05:25:16.200Z,102151.91
2022-08-09T05:30:20.344Z,102160.84
2022-08-09T05:35:22.385Z,102158.25
2022-08-09T05:40:25.967Z,102167.91
2022-08-09T05:45:52.774Z,102167.13
2022-08-09T05:51:10.397Z,102177.59
2022-08-09T05:56:12.640Z,102172.28
2022-08-09T06:01:18.042Z,102180.13
2022-08-09T06:06:21.274Z,102183.94
2022-08-09T06:11:24.403Z,102172.16
2022-08-09T06:16:43.510Z,102188.25
2022-08-09T06:21:58.502Z,102177.75
2022-08-09T06:27:00.762Z,102169.81
2022-08-09T06:32:08.600Z,102182.53
2022-08-09T06:37:11.118Z,102187.88
2022-08-09T06:42:13.255Z,102197.34
2022-08-09T06:47:15.372Z,102207.31
2022-08-09T06:52:17.614Z,102194.00
2022-08-09T06:57:19.979Z,102196.69
2022-08-09T07:02:41.803Z,102197.56
2022-08-09T07:08:00.524Z,102202.91
2022-08-09T07:13:27.193Z,102212.41
2022-08-09T07:18:25.245Z,102213.03
2022-08-09T07:23:28.022Z,102219.00
2022-08-09T07:28:37.887Z,102210.13
2022-08-09T07:33:59.931Z,102227.88
2022-08-09T07:39:02.382Z,102210.78
2022-08-09T07:44:05.003Z,102224.16
2022-08-09T07:49:08.337Z,102216.03
2022-08-09T07:54:27.511Z,102216.38
2022-08-09T07:59:45.882Z,102221.47
2022-08-09T08:04:53.819Z,102209.59
2022-08-09T08:10:08.334Z,102215.81
2022-08-09T08:15:17.328Z,102223.38
2022-08-09T08:20:29.136Z,102212.41
2022-08-09T08:25:44.356Z,102213.25
2022-08-09T08:30:48.615Z,102218.22
2022-08-09T08:35:59.173Z,102213.75
2022-08-09T08:41:06.290Z,102210.41
2022-08-09T08:46:32.884Z,102210.19
2022-08-09T08:51:38.823Z,102220.19
2022-08-09T08:57:01.127Z,102208.13
2022-08-09T09:02:07.226Z,102222.00
2022-08-09T09:07:12.107Z,102212.44
2022-08-09T09:12:29.058Z,102222.53
2022-08-09T09:17:49.563Z,102214.34
2022-08-09T09:23:02.005Z,102220.50
2022-08-09T09:28:10.711Z,102214.31
2022-08-09T09:33:15.525Z,102211.44
2022-08-09T09:38:27.796Z,102213.88
2022-08-09T09:43:41.327Z,102212.44
2022-08-09T09:49:11.724Z,102198.75
2022-08-09T09:54:21.138Z,102201.16
2022-08-09T09:59:35.535Z,102197.75
2022-08-09T10:04:38.526Z,102201.84
2022-08-09T10:09:55.089Z,102201.22
2022-08-09T10:15:17.690Z,102200.28
2022-08-09T10:20:32.247Z,102203.53
2022-08-09T10:26:06.266Z,102187.25
2022-08-09T10:36:22.340Z,102185.41
2022-08-09T10:41:24.895Z,102178.00
2022-08-09T10:48:13.411Z,102187.28
2022-08-09T10:52:56.766Z,102183.94
2022-08-09T10:58:02.855Z,102175.63
2022-08-09T11:03:50.459Z,102184.59
2022-08-09T11:08:51.213Z,102180.75
2022-08-09T11:14:51.227Z,102171.47
2022-08-09T11:20:22.696Z,102176.44
2022-08-09T11:25:45.074Z,102180.63
2022-08-09T11:30:49.901Z,102169.53
2022-08-09T11:36:01.495Z,102163.34
2022-08-09T11:41:38.130Z,102170.03
2022-08-09T11:46:59.550Z,102166.03
2022-08-09T11:53:03.110Z,102160.91
2022-08-09T11:57:47.865Z,102161.69
2022-08-09T12:03:31.894Z,102170.75
2022-08-09T12:08:27.293Z,102165.97
2022-08-09T12:14:09.924Z,102160.22
2022-08-09T12:19:04.399Z,102161.50
2022-08-09T12:24:10.473Z,102154.44
2022-08-09T12:29:33.370Z,102156.06
2022-08-09T12:34:46.174Z,102142.91
2022-08-09T12:40:12.012Z,102151.66
2022-08-09T12:45:34.324Z,102140.84
2022-08-09T12:50:38.332Z,102149.50
2022-08-09T12:56:14.417Z,102132.09
2022-08-09T13:01:04.738Z,102127.91
2022-08-09T13:06:16.107Z,102118.72
2022-08-09T13:11:31.025Z,102110.38
2022-08-09T13:16:59.912Z,102128.31
2022-08-09T13:22:35.375Z,102119.47
2022-08-09T13:27:48.843Z,102106.34
2022-08-09T13:33:00.658Z,102104.78
2022-08-09T13:38:02.751Z,102093.03
2022-08-09T13:43:09.537Z,102102.25
2022-08-09T13:48:11.888Z,102106.78
2022-08-09T13:53:16.921Z,102114.81
2022-08-09T13:58:18.678Z,102100.56
2022-08-09T14:04:05.177Z,102102.19
2022-08-09T14:08:43.442Z,102098.44
2022-08-09T14:14:23.936Z,102094.72
2022-08-09T14:19:07.110Z,102097.63
2022-08-09T14:24:22.203Z,102105.19
2022-08-09T14:30:34.829Z,102102.13
2022-08-09T14:34:55.597Z,102105.91
2022-08-09T14:39:58.649Z,102107.88
2022-08-09T14:46:40.109Z,102099.00
2022-08-09T14:50:37.139Z,102085.47
2022-08-09T14:55:47.744Z,102082.47
2022-08-09T15:00:52.436Z,102093.00
2022-08-09T15:05:56.810Z,102084.97
2022-08-09T15:11:04.877Z,102089.28
2022-08-09T15:16:09.886Z,102082.88
2022-08-09T15:21:56.203Z,102086.41
2022-08-09T15:26:33.490Z,102089.19
2022-08-09T15:31:41.015Z,102078.81
2022-08-09T15:36:48.072Z,102079.88
2022-08-09T15:41:50.819Z,102077.19
2022-08-09T15:46:52.627Z,102067.41
2022-08-09T15:52:05.154Z,102075.31
2022-08-09T15:57:08.534Z,102079.72
2022-08-09T16:02:13.383Z,102086.81
2022-08-09T16:07:16.079Z,102075.47
2022-08-09T16:12:18.903Z,102075.50
2022-08-09T16:17:22.061Z,102061.50
2022-08-09T16:22:24.713Z,102069.69
2022-08-09T16:27:30.008Z,102060.94
2022-08-09T16:32:54.387Z,102077.91
2022-08-09T16:37:56.942Z,102068.38
2022-08-09T16:43:04.510Z,102069.38
2022-08-09T16:48:40.517Z,102064.19
2022-08-09T16:53:34.267Z,102063.38
2022-08-09T16:58:37.331Z,102047.69
2022-08-09T17:03:41.722Z,102064.50
2022-08-09T17:09:03.070Z,102083.06
2022-08-09T17:14:05.754Z,102078.94
2022-08-09T17:19:09.802Z,102070.16
2022-08-09T17:24:28.070Z,102080.88
2022-08-09T17:29:38.032Z,102082.69
2022-08-09T17:35:00.789Z,102097.75
2022-08-09T17:40:17.931Z,102091.56
2022-08-09T17:45:27.067Z,102079.22
2022-08-09T17:50:40.550Z,102095.19
2022-08-09T17:55:55.692Z,102106.75
2022-08-09T18:01:00.825Z,102117.50
2022-08-09T18:06:02.578Z,102116.69
2022-08-09T18:11:04.678Z,102113.22
2022-08-09T18:16:09.512Z,102107.03
2022-08-09T18:21:22.832Z,102130.09
2022-08-09T18:26:26.358Z,102142.56
2022-08-09T18:31:51.600Z,102110.72
2022-08-09T18:36:50.537Z,102132.91
2022-08-09T18:41:56.307Z,102138.19
2022-08-09T18:47:07.448Z,102151.50
2022-08-09T18:52:13.232Z,102153.28
2022-08-09T18:57:15.547Z,102145.31
2022-08-09T19:02:19.102Z,102155.06
2022-08-09T19:07:21.066Z,102161.31
2022-08-09T19:12:24.718Z,102181.69
2022-08-09T19:17:31.178Z,102173.72
2022-08-09T19:22:41.466Z,102175.50
2022-08-09T19:27:56.105Z,102179.06
2022-08-09T19:32:59.632Z,102183.47
2022-08-09T19:38:02.389Z,102191.44
2022-08-09T19:43:05.170Z,102191.41
2022-08-09T19:48:07.401Z,102196.72
2022-08-09T19:53:12.413Z,102190.50
2022-08-09T19:58:16.536Z,102186.94
2022-08-09T20:04:18.549Z,102191.38
2022-08-09T20:08:41.120Z,102200.19
2022-08-09T20:13:53.919Z,102190.41
2022-08-09T20:19:42.481Z,102199.19
2022-08-09T20:24:19.361Z,102212.41
2022-08-09T20:29:37.294Z,102203.56
2022-08-09T20:34:39.667Z,102215.94
2022-08-09T20:40:17.476Z,102207.91
2022-08-09T20:45:57.516Z,102192.88
2022-08-09T20:50:47.029Z,102206.13
2022-08-09T20:56:00.995Z,102214.06
2022-08-09T21:01:33.507Z,102215.75
2022-08-09T21:06:31.662Z,102224.53
2022-08-09T21:16:55.207Z,102227.16
2022-08-09T21:21:58.004Z,102234.22
2022-08-09T21:27:01.067Z,102241.22
2022-08-09T21:32:33.336Z,102235.91
2022-08-09T21:37:47.305Z,102234.09
2022-08-09T21:43:01.098Z,102236.59
2022-08-09T21:48:05.163Z,102242.81
2022-08-09T21:53:19.926Z,102228.66
2022-08-09T21:58:31.332Z,102240.13
2022-08-09T22:03:33.255Z,102248.94
2022-08-09T22:08:38.455Z,102237.44
2022-08-09T22:13:45.942Z,102239.22
2022-08-09T22:18:53.742Z,102245.38
2022-08-09T22:23:59.386Z,102249.78
2022-08-09T22:29:08.710Z,102244.47
2022-08-09T22:34:14.807Z,102246.22
2022-08-09T22:39:46.905Z,102220.47
2022-08-09T22:44:38.949Z,102242.56
2022-08-09T22:49:52.106Z,102261.09
2022-08-09T22:54:53.972Z,102253.00
2022-08-09T22:59:59.361Z,102243.16
2022-08-09T23:05:01.629Z,102253.72
2022-08-09T23:10:08.014Z,102249.28
2022-08-09T23:15:10.658Z,102248.28
2022-08-09T23:20:12.389Z,102256.13
2022-08-09T23:25:14.338Z,102253.38
2022-08-09T23:30:16.997Z,102257.72
2022-08-09T23:35:18.766Z,102246.25
2022-08-09T23:40:20.584Z,102244.38
2022-08-09T23:45:37.230Z,102260.31
2022-08-09T23:50:40.726Z,102263.91
2022-08-09T23:55:49.554Z,102250.44
